RJNY 
Shizuhama Airport
Japan 
ICAOStatus
RJNYOperational
LatitudeLongitude
34° 48' 46" N138° 17' 52" E
34.812801138.298004
Local Time (DST+9)UTC (GMT+9)
04-24-2014 05:07 pm04-24-2014 08:07
Sunrise-SunsetLocalUTC
Begin Civil Twilight04:36 am19:36
Sunrise05:02 am20:02
Sunset06:27 pm09:27
End Civil Twilight06:53 pm09:53

Current Weather

METARObservedFlight Conditions

RJNY 240719Z 16010KT 9999 FEW025 BKN050 18/12 Q1023

Thu, Apr 24, 2014 @ 07:19 UTC(Z)

(48 Minutes ago)

VFR

(Visual Flight Rules)

WindVisibilityCloudsConditions
160° at 10 knots (19 kph)
10 km or more
  • Few at 2,500' AGL
  • Broken at 5,000' AGL
  • No significant weather
TemperaturesReadingsPrecipitation
Current Temp18°C (64°F)
Dewpoint12°C (54°F)
Humidity68%
Altimeter30.21"Hg
Sea Level Pressure1023mb
Field Elevation32.81'
None Recorded

Additional weather within a 92.6km radius of RJNY

Location METAR
rjns

10.2km W (259°)

1 hour, 7 minutes ago
RJAT

76.7km N (043°)

1 hour, 52 minutes ago
VFR VFR    MVFR MVFR    IFR IFR    LIFR LIFR    Unknown Unknown

Previous 24 hour Weather Graphs

  Loading...

CheckWX.com is intended as a tool to help pilots better visualize weather data.   It is not intended as a substitute for an official weather briefing obtained from a Flight Service Station.
CheckWX.com does not meet the FAA requirements for an official pre-flight weather briefing.   Therefore, it's important that pilots still call and obtain an official FSS pre-flight weather briefing.